createdAt,value
2018-10-11T00:00:12.964Z,12.73
2018-10-11T00:02:40.443Z,12.17
2018-10-11T00:05:07.904Z,13.05
2018-10-11T00:07:35.336Z,12.73
2018-10-11T00:10:02.779Z,12.60
2018-10-11T00:12:30.216Z,13.20
2018-10-11T00:14:57.653Z,13.13
2018-10-11T00:17:25.080Z,13.67
2018-10-11T00:19:52.603Z,13.10
2018-10-11T00:22:19.978Z,12.63
2018-10-11T00:24:47.412Z,13.13
2018-10-11T00:27:14.838Z,12.57
2018-10-11T00:29:42.267Z,13.15
2018-10-11T00:32:09.724Z,13.40
2018-10-11T00:34:37.164Z,12.87
2018-10-11T00:37:04.596Z,13.23
2018-10-11T00:39:32.012Z,12.33
2018-10-11T00:41:59.445Z,13.03
2018-10-11T00:44:26.873Z,12.55
2018-10-11T00:46:54.300Z,12.87
2018-10-11T00:49:21.756Z,12.90
2018-10-11T00:51:49.183Z,13.37
2018-10-11T00:54:16.600Z,12.63
2018-10-11T00:56:44.080Z,12.13
2018-10-11T00:59:11.934Z,12.98
2018-10-11T01:01:39.822Z,13.13
2018-10-11T01:04:07.244Z,13.37
2018-10-11T01:06:34.751Z,13.23
2018-10-11T01:09:02.179Z,13.03
2018-10-11T01:11:29.667Z,12.55
2018-10-11T01:13:57.092Z,12.40
2018-10-11T01:16:24.530Z,12.65
2018-10-11T01:18:52.052Z,12.97
2018-10-11T01:21:19.492Z,11.97
2018-10-11T01:23:47.093Z,12.73
2018-10-11T01:26:14.425Z,12.43
2018-10-11T01:28:41.944Z,13.63
2018-10-11T01:31:14.966Z,12.43
2018-10-11T01:33:42.386Z,11.43
2018-10-11T01:36:09.881Z,12.03
2018-10-11T01:38:37.369Z,12.10
2018-10-11T01:41:04.796Z,12.78
2018-10-11T01:43:32.224Z,12.23
2018-10-11T01:45:59.671Z,12.40
2018-10-11T01:48:27.168Z,12.10
2018-10-11T01:50:54.622Z,12.15
2018-10-11T01:53:22.057Z,12.43
2018-10-11T01:55:49.504Z,11.50
2018-10-11T01:58:16.992Z,11.80
2018-10-11T02:00:44.431Z,11.63
2018-10-11T02:03:11.860Z,11.30
2018-10-11T02:05:39.368Z,12.10
2018-10-11T02:08:06.817Z,11.50
2018-10-11T02:10:34.280Z,12.03
2018-10-11T02:13:01.740Z,11.37
2018-10-11T02:15:29.197Z,12.03
2018-10-11T02:17:57.242Z,12.83
2018-10-11T02:20:24.728Z,11.47
2018-10-11T02:22:52.160Z,12.15
2018-10-11T02:25:19.595Z,11.43
2018-10-11T02:27:47.089Z,11.93
2018-10-11T02:30:14.562Z,12.27
2018-10-11T02:32:42.500Z,11.85
2018-10-11T02:35:10.154Z,11.90
2018-10-11T02:37:37.591Z,11.90
2018-10-11T02:40:05.108Z,12.43
2018-10-11T02:42:32.544Z,12.20
2018-10-11T02:44:59.972Z,12.07
2018-10-11T02:47:27.459Z,12.93
2018-10-11T02:49:54.887Z,13.07
2018-10-11T02:52:22.312Z,12.67
2018-10-11T02:54:49.752Z,12.63
2018-10-11T02:57:17.188Z,12.33
2018-10-11T02:59:44.620Z,13.00
2018-10-11T03:02:13.172Z,12.43
2018-10-11T03:04:40.598Z,13.22
2018-10-11T03:07:08.027Z,12.73
2018-10-11T03:09:35.454Z,12.45
2018-10-11T03:12:02.945Z,13.17
2018-10-11T03:14:30.363Z,12.55
2018-10-11T03:16:57.795Z,12.87
2018-10-11T03:19:25.231Z,12.47
2018-10-11T03:21:52.676Z,13.03
2018-10-11T03:24:20.144Z,13.05
2018-10-11T03:26:47.544Z,13.47
2018-10-11T03:29:14.986Z,12.83
2018-10-11T03:31:42.424Z,13.53
2018-10-11T03:34:09.876Z,12.75
2018-10-11T03:36:37.312Z,13.00
2018-10-11T03:39:04.897Z,13.90
2018-10-11T03:41:32.372Z,14.50
2018-10-11T03:43:59.805Z,13.60
2018-10-11T03:46:27.240Z,14.30
2018-10-11T03:48:54.644Z,13.65
2018-10-11T03:51:22.063Z,14.57
2018-10-11T03:53:49.520Z,14.23
2018-10-11T03:56:17.050Z,14.73
2018-10-11T03:58:44.563Z,15.18
2018-10-11T04:01:12.008Z,14.17
2018-10-11T04:03:39.440Z,14.38
2018-10-11T04:06:06.872Z,14.33
2018-10-11T04:08:34.304Z,14.13
2018-10-11T04:11:01.748Z,14.83
2018-10-11T04:13:29.183Z,14.23
2018-10-11T04:15:56.633Z,14.83
2018-10-11T04:18:24.060Z,14.65
2018-10-11T04:20:51.483Z,14.97
2018-10-11T04:23:27.705Z,14.23
2018-10-11T04:25:55.192Z,14.80
2018-10-11T04:28:22.632Z,14.85
2018-10-11T04:30:50.048Z,14.77
2018-10-11T04:33:17.492Z,15.43
2018-10-11T04:35:44.916Z,15.73
2018-10-11T04:38:12.563Z,14.80
2018-10-11T04:40:40.220Z,14.37
2018-10-11T04:43:07.779Z,15.00
2018-10-11T04:45:35.071Z,15.77
2018-10-11T04:48:02.505Z,15.88
2018-10-11T04:50:29.928Z,15.43
2018-10-11T04:52:57.359Z,14.95
2018-10-11T04:55:24.885Z,15.30
2018-10-11T04:57:52.316Z,16.32
2018-10-11T05:00:19.741Z,15.33
2018-10-11T05:02:47.176Z,15.90
2018-10-11T05:05:14.628Z,15.53
2018-10-11T05:07:42.027Z,15.80
2018-10-11T05:10:09.607Z,15.07
2018-10-11T05:12:37.100Z,15.00
2018-10-11T05:15:04.523Z,15.13
2018-10-11T05:17:32.003Z,15.98
2018-10-11T05:19:59.376Z,16.43
2018-10-11T05:22:26.831Z,15.65
2018-10-11T05:24:54.263Z,14.83
2018-10-11T05:27:21.708Z,15.27
2018-10-11T05:29:49.136Z,15.00
2018-10-11T05:32:16.602Z,14.93
2018-10-11T05:34:43.994Z,16.00
2018-10-11T05:37:11.516Z,14.23
2018-10-11T05:39:38.946Z,15.13
2018-10-11T05:42:06.367Z,15.10
2018-10-11T05:44:33.907Z,15.63
2018-10-11T05:47:01.240Z,15.40
2018-10-11T05:49:28.698Z,15.30
2018-10-11T05:51:56.131Z,16.00
2018-10-11T05:54:23.568Z,16.23
2018-10-11T05:56:51.038Z,14.93
2018-10-11T05:59:18.420Z,14.77
2018-10-11T06:01:45.854Z,15.67
2018-10-11T06:04:13.308Z,14.07
2018-10-11T06:06:40.937Z,15.32
2018-10-11T06:09:08.359Z,14.80
2018-10-11T06:11:35.780Z,14.50
2018-10-11T06:14:03.219Z,15.00
2018-10-11T06:16:30.647Z,14.68
2018-10-11T06:18:58.072Z,15.97
2018-10-11T06:21:25.520Z,15.68
2018-10-11T06:23:52.951Z,14.77
2018-10-11T06:26:20.408Z,14.70
2018-10-11T06:28:47.836Z,14.90
2018-10-11T06:31:15.267Z,14.18
2018-10-11T06:33:43.831Z,14.73
2018-10-11T06:36:11.337Z,15.30
2018-10-11T06:38:38.683Z,14.87
2018-10-11T06:41:06.112Z,14.87
2018-10-11T06:43:33.544Z,14.20
2018-10-11T06:46:00.979Z,15.07
2018-10-11T06:48:28.408Z,14.93
2018-10-11T06:50:55.845Z,14.65
2018-10-11T06:53:23.264Z,14.73
2018-10-11T06:55:50.732Z,14.05
2018-10-11T06:58:18.156Z,15.53
2018-10-11T07:00:45.600Z,14.67
2018-10-11T07:03:13.019Z,14.03
2018-10-11T07:05:40.453Z,13.15
2018-10-11T07:08:07.875Z,13.73
2018-10-11T07:10:35.308Z,13.55
2018-10-11T07:13:02.728Z,13.77
2018-10-11T07:15:30.155Z,14.03
2018-10-11T07:17:57.583Z,13.70
2018-10-11T07:20:25.028Z,13.30
2018-10-11T07:22:52.585Z,13.90
2018-10-11T07:25:19.989Z,13.93
2018-10-11T07:27:47.411Z,13.57
2018-10-11T07:30:15.004Z,12.07
2018-10-11T07:32:42.432Z,12.37
2018-10-11T07:35:09.946Z,13.30
2018-10-11T07:37:37.291Z,13.60
2018-10-11T07:40:04.728Z,12.65
2018-10-11T07:42:32.168Z,13.53
2018-10-11T07:44:59.607Z,13.10
2018-10-11T07:47:27.019Z,12.40
2018-10-11T07:49:54.456Z,13.30
2018-10-11T07:52:21.877Z,13.17
2018-10-11T07:54:49.305Z,12.37
2018-10-11T07:57:16.727Z,12.60
2018-10-11T07:59:44.162Z,13.97
2018-10-11T08:02:11.584Z,11.87
2018-10-11T08:04:39.046Z,13.67
2018-10-11T08:07:06.491Z,12.70
2018-10-11T08:09:33.896Z,13.05
2018-10-11T08:12:01.517Z,12.57
2018-10-11T08:14:28.758Z,13.30
2018-10-11T08:16:56.288Z,12.80
2018-10-11T08:19:23.916Z,12.98
2018-10-11T08:21:51.052Z,12.67
2018-10-11T08:24:18.508Z,11.83
2018-10-11T08:26:45.959Z,12.67
2018-10-11T08:29:13.399Z,12.27
2018-10-11T08:31:40.837Z,12.67
2018-10-11T08:34:08.320Z,11.33
2018-10-11T08:36:35.749Z,13.10
2018-10-11T08:39:03.181Z,12.53
2018-10-11T08:41:30.600Z,12.13
2018-10-11T08:43:58.122Z,13.03
2018-10-11T08:46:25.533Z,12.10
2018-10-11T08:48:52.966Z,12.68
2018-10-11T08:51:20.400Z,11.93
2018-10-11T08:53:47.830Z,12.60
2018-10-11T08:56:15.261Z,11.80
2018-10-11T08:58:42.699Z,11.90
2018-10-11T09:01:10.137Z,13.10
2018-10-11T09:03:37.622Z,12.03
2018-10-11T09:06:04.996Z,12.13
2018-10-11T09:08:32.442Z,11.97
2018-10-11T09:10:59.953Z,12.27
2018-10-11T09:13:27.315Z,10.87
2018-10-11T09:15:54.755Z,11.63
2018-10-11T09:18:22.196Z,10.88
2018-10-11T09:20:49.619Z,11.03
2018-10-11T09:23:17.083Z,11.35
2018-10-11T09:25:44.489Z,11.70
2018-10-11T09:28:11.907Z,12.23
2018-10-11T09:30:39.343Z,11.60
2018-10-11T09:33:06.767Z,11.35
2018-10-11T09:35:34.197Z,10.87
2018-10-11T09:38:01.657Z,10.32
2018-10-11T09:40:29.075Z,10.30
2018-10-11T09:42:56.572Z,11.77
2018-10-11T09:45:24.136Z,10.67
2018-10-11T09:47:51.670Z,11.15
2018-10-11T09:50:19.102Z,11.40
2018-10-11T09:52:46.591Z,10.83
2018-10-11T09:55:14.009Z,11.47
2018-10-11T09:57:41.440Z,10.77
2018-10-11T10:00:14.140Z,10.80
2018-10-11T10:02:41.567Z,10.23
2018-10-11T10:05:08.987Z,10.57
2018-10-11T10:07:36.419Z,10.57
2018-10-11T10:10:03.965Z,10.33
2018-10-11T10:12:31.283Z,10.97
2018-10-11T10:14:58.703Z,10.88
2018-10-11T10:17:26.146Z,11.80
2018-10-11T10:19:53.576Z,11.17
2018-10-11T10:22:20.992Z,10.23
2018-10-11T10:24:48.429Z,11.28
2018-10-11T10:27:15.982Z,9.97
2018-10-11T10:29:43.271Z,10.03
2018-10-11T10:32:10.724Z,10.43
2018-10-11T10:34:38.159Z,10.70
2018-10-11T10:37:05.658Z,10.30
2018-10-11T10:39:33.079Z,10.80
2018-10-11T10:42:00.508Z,10.60
2018-10-11T10:44:27.936Z,10.03
2018-10-11T10:46:55.367Z,9.57
2018-10-11T10:49:22.767Z,9.43
2018-10-11T10:51:50.195Z,10.47
2018-10-11T10:54:23.152Z,10.23
2018-10-11T10:56:50.772Z,9.60
2018-10-11T10:59:18.199Z,10.03
2018-10-11T11:01:45.644Z,11.30
2018-10-11T11:04:13.067Z,9.57
2018-10-11T11:06:40.487Z,9.70
2018-10-11T11:09:07.973Z,10.10
2018-10-11T11:11:35.399Z,10.70
2018-10-11T11:14:02.827Z,10.10
2018-10-11T11:16:30.244Z,9.50
2018-10-11T11:18:57.720Z,9.47
2018-10-11T11:21:25.100Z,9.33
2018-10-11T11:23:52.533Z,9.20
2018-10-11T11:26:19.948Z,10.05
2018-10-11T11:28:47.381Z,9.47
2018-10-11T11:31:14.796Z,8.87
2018-10-11T11:33:42.216Z,9.50
2018-10-11T11:36:09.644Z,9.53
2018-10-11T11:38:37.066Z,8.93
2018-10-11T11:41:04.479Z,9.70
2018-10-11T11:43:31.923Z,9.97
2018-10-11T11:45:59.398Z,8.83
2018-10-11T11:48:26.769Z,9.53
2018-10-11T11:50:54.195Z,10.23
2018-10-11T11:53:21.644Z,10.07
2018-10-11T11:55:49.055Z,9.63
2018-10-11T11:58:16.518Z,10.30
2018-10-11T12:00:43.946Z,10.40
2018-10-11T12:03:11.385Z,9.77
2018-10-11T12:05:38.801Z,10.18
2018-10-11T12:08:06.236Z,9.77
2018-10-11T12:10:33.714Z,9.50
2018-10-11T12:13:05.437Z,10.40
2018-10-11T12:15:33.510Z,9.77
2018-10-11T12:18:02.031Z,9.90
2018-10-11T12:20:30.767Z,10.67
2018-10-11T12:22:59.255Z,10.57
2018-10-11T12:25:27.031Z,10.67
2018-10-11T12:27:54.491Z,10.47
2018-10-11T12:30:21.919Z,11.30
2018-10-11T12:32:49.387Z,10.10
2018-10-11T12:35:18.292Z,10.53
2018-10-11T12:37:45.960Z,10.37
2018-10-11T12:40:13.616Z,10.57
2018-10-11T12:42:41.369Z,10.67
2018-10-11T12:45:09.471Z,10.23
2018-10-11T12:47:37.112Z,10.37
2018-10-11T12:50:04.568Z,11.12
2018-10-11T12:52:31.982Z,10.80
2018-10-11T12:54:59.446Z,10.75
2018-10-11T12:57:26.867Z,10.13
2018-10-11T12:59:54.291Z,11.10
2018-10-11T13:02:21.719Z,10.00
2018-10-11T13:04:49.727Z,9.80
2018-10-11T13:07:17.161Z,10.23
2018-10-11T13:09:44.595Z,10.23
2018-10-11T13:12:12.021Z,10.32
2018-10-11T13:14:39.453Z,9.60
2018-10-11T13:17:06.870Z,10.03
2018-10-11T13:19:34.300Z,10.13
2018-10-11T13:22:01.730Z,10.13
2018-10-11T13:24:29.157Z,9.83
2018-10-11T13:26:56.664Z,10.53
2018-10-11T13:29:24.051Z,10.77
2018-10-11T13:31:51.473Z,10.80
2018-10-11T13:34:18.899Z,10.60
2018-10-11T13:36:46.592Z,10.17
2018-10-11T13:39:14.027Z,9.83
2018-10-11T13:41:41.939Z,9.60
2018-10-11T13:44:09.224Z,10.40
2018-10-11T13:46:36.639Z,10.07
2018-10-11T13:49:04.067Z,9.90
2018-10-11T13:51:31.487Z,9.57
2018-10-11T13:53:58.987Z,9.90
2018-10-11T13:56:26.952Z,9.90
2018-10-11T13:58:54.420Z,9.37
2018-10-11T14:01:21.804Z,9.50
2018-10-11T14:03:49.225Z,9.50
2018-10-11T14:06:17.704Z,9.33
2018-10-11T14:08:45.112Z,9.60
2018-10-11T14:11:12.532Z,9.40
2018-10-11T14:13:40.377Z,9.40
2018-10-11T14:16:07.795Z,10.03
2018-10-11T14:18:35.595Z,9.40
2018-10-11T14:21:03.015Z,9.33
2018-10-11T14:23:30.535Z,9.00
2018-10-11T14:25:58.087Z,9.27
2018-10-11T14:28:25.508Z,9.73
2018-10-11T14:30:52.948Z,9.27
2018-10-11T14:33:20.657Z,9.60
2018-10-11T14:35:48.116Z,10.17
2018-10-11T14:38:15.535Z,10.00
2018-10-11T14:40:43.016Z,10.97
2018-10-11T14:43:10.434Z,9.93
2018-10-11T14:45:37.860Z,10.90
2018-10-11T14:48:05.280Z,10.23
2018-10-11T14:50:32.720Z,10.63
2018-10-11T14:53:00.147Z,10.60
2018-10-11T14:55:27.580Z,9.47
2018-10-11T14:57:55.007Z,8.90
2018-10-11T15:00:22.441Z,9.27
2018-10-11T15:02:49.877Z,9.87
2018-10-11T15:05:17.327Z,10.37
2018-10-11T15:07:44.731Z,10.13
2018-10-11T15:10:12.184Z,9.83
2018-10-11T15:12:39.573Z,9.85
2018-10-11T15:15:06.999Z,10.63
2018-10-11T15:17:34.416Z,10.27
2018-10-11T15:20:01.872Z,10.07
2018-10-11T15:22:29.306Z,10.43
2018-10-11T15:24:56.729Z,10.13
2018-10-11T15:27:24.416Z,10.45
2018-10-11T15:29:51.904Z,10.53
2018-10-11T15:32:19.327Z,9.73
2018-10-11T15:34:46.777Z,9.20
2018-10-11T15:37:14.170Z,10.82
2018-10-11T15:39:41.604Z,10.30
2018-10-11T15:42:09.039Z,9.50
2018-10-11T15:44:36.461Z,9.37
2018-10-11T15:47:03.889Z,10.00
2018-10-11T15:49:31.308Z,9.17
2018-10-11T15:51:58.750Z,9.67
2018-10-11T15:54:26.171Z,8.83
2018-10-11T15:56:53.617Z,9.38
2018-10-11T15:59:21.032Z,10.07
2018-10-11T16:01:48.462Z,9.53
2018-10-11T16:04:15.879Z,9.97
2018-10-11T16:06:43.324Z,9.48
2018-10-11T16:09:11.104Z,9.87
2018-10-11T16:11:38.527Z,9.13
2018-10-11T16:14:05.978Z,9.37
2018-10-11T16:16:33.511Z,10.03
2018-10-11T16:19:00.937Z,9.60
2018-10-11T16:21:28.692Z,10.20
2018-10-11T16:23:56.109Z,9.37
2018-10-11T16:26:23.539Z,10.00
2018-10-11T16:28:50.964Z,9.43
2018-10-11T16:31:18.402Z,9.60
2018-10-11T16:33:45.980Z,9.90
2018-10-11T16:36:13.407Z,9.30
2018-10-11T16:38:40.821Z,8.63
2018-10-11T16:41:08.247Z,9.75
2018-10-11T16:43:35.665Z,8.80
2018-10-11T16:46:03.095Z,9.38
2018-10-11T16:48:30.520Z,9.50
2018-10-11T16:50:57.943Z,8.80
2018-10-11T16:53:25.351Z,8.70
2018-10-11T16:55:52.775Z,9.37
2018-10-11T16:58:20.199Z,8.83
2018-10-11T17:00:47.625Z,9.10
2018-10-11T17:03:15.055Z,8.13
2018-10-11T17:05:42.472Z,8.93
2018-10-11T17:08:09.909Z,8.73
2018-10-11T17:10:37.338Z,8.78
2018-10-11T17:13:04.755Z,9.10
2018-10-11T17:15:32.167Z,9.28
2018-10-11T17:17:59.584Z,9.43
2018-10-11T17:20:26.996Z,9.27
2018-10-11T17:22:54.431Z,9.63
2018-10-11T17:25:21.860Z,9.37
2018-10-11T17:27:49.298Z,9.53
2018-10-11T17:30:16.712Z,9.55
2018-10-11T17:32:44.168Z,9.77
2018-10-11T17:35:11.572Z,9.37
2018-10-11T17:37:38.988Z,8.97
2018-10-11T17:40:06.420Z,9.43
2018-10-11T17:42:33.861Z,9.80
2018-10-11T17:45:01.273Z,9.63
2018-10-11T17:47:28.695Z,10.20
2018-10-11T17:49:56.125Z,9.87
2018-10-11T17:52:23.541Z,10.50
2018-10-11T17:54:51.873Z,9.63
2018-10-11T17:57:19.336Z,10.53
2018-10-11T17:59:47.094Z,9.97
2018-10-11T18:02:14.517Z,9.83
2018-10-11T18:04:42.080Z,9.13
2018-10-11T18:07:09.509Z,10.50
2018-10-11T18:09:36.930Z,11.40
2018-10-11T18:12:04.374Z,10.67
2018-10-11T18:14:31.799Z,10.53
2018-10-11T18:16:59.267Z,10.70
2018-10-11T18:19:26.671Z,9.93
2018-10-11T18:21:54.104Z,10.78
2018-10-11T18:24:21.524Z,9.83
2018-10-11T18:26:48.948Z,10.80
2018-10-11T18:29:16.474Z,10.57
2018-10-11T18:31:43.811Z,10.78
2018-10-11T18:34:11.240Z,11.77
2018-10-11T18:36:38.662Z,10.80
2018-10-11T18:39:06.084Z,12.17
2018-10-11T18:41:33.511Z,10.30
2018-10-11T18:44:00.940Z,12.17
2018-10-11T18:46:28.368Z,11.43
2018-10-11T18:48:55.800Z,11.40
2018-10-11T18:51:23.211Z,12.33
2018-10-11T18:53:50.646Z,11.63
2018-10-11T18:56:18.070Z,11.60
2018-10-11T18:58:45.513Z,11.87
2018-10-11T19:01:12.927Z,12.15
2018-10-11T19:03:40.351Z,11.33
2018-10-11T19:06:07.777Z,12.35
2018-10-11T19:08:35.208Z,12.70
2018-10-11T19:11:02.628Z,11.87
2018-10-11T19:13:30.060Z,11.40
2018-10-11T19:15:57.484Z,12.10
2018-10-11T19:18:24.935Z,11.23
2018-10-11T19:20:52.445Z,11.75
2018-10-11T19:23:19.805Z,11.63
2018-10-11T19:25:48.219Z,11.07
2018-10-11T19:28:15.656Z,11.87
2018-10-11T19:30:43.094Z,11.60
2018-10-11T19:33:10.513Z,11.27
2018-10-11T19:35:37.948Z,11.90
2018-10-11T19:38:05.378Z,11.27
2018-10-11T19:40:32.792Z,12.07
2018-10-11T19:43:00.215Z,11.27
2018-10-11T19:45:27.650Z,12.30
2018-10-11T19:47:55.082Z,12.53
2018-10-11T19:50:22.504Z,12.98
2018-10-11T19:52:49.928Z,13.00
2018-10-11T19:55:17.358Z,13.08
2018-10-11T19:57:44.788Z,12.23
2018-10-11T20:00:12.248Z,12.47
2018-10-11T20:02:39.689Z,12.50
2018-10-11T20:05:07.128Z,12.93
2018-10-11T20:07:34.561Z,12.57
2018-10-11T20:10:01.996Z,12.05
2018-10-11T20:12:29.416Z,12.27
2018-10-11T20:14:56.860Z,12.43
2018-10-11T20:17:24.350Z,11.80
2018-10-11T20:19:51.735Z,12.88
2018-10-11T20:24:52.965Z,12.20
2018-10-11T20:27:20.396Z,12.50
2018-10-11T20:29:47.828Z,12.47
2018-10-11T20:32:15.260Z,12.68
2018-10-11T20:34:42.676Z,12.73
2018-10-11T20:37:10.102Z,13.28
2018-10-11T20:39:37.530Z,12.83
2018-10-11T20:42:04.947Z,13.37
2018-10-11T20:44:32.389Z,12.20
2018-10-11T20:46:59.828Z,11.63
2018-10-11T20:49:27.259Z,11.70
2018-10-11T20:51:54.704Z,12.47
2018-10-11T20:54:22.148Z,11.50
2018-10-11T20:56:49.584Z,12.30
2018-10-11T20:59:17.006Z,12.10
2018-10-11T21:01:44.423Z,12.03
2018-10-11T21:04:11.877Z,12.67
2018-10-11T21:06:39.308Z,12.63
2018-10-11T21:09:06.756Z,11.33
2018-10-11T21:11:34.224Z,11.07
2018-10-11T21:14:01.612Z,12.17
2018-10-11T21:16:29.035Z,11.12
2018-10-11T21:18:56.469Z,11.47
2018-10-11T21:21:23.884Z,12.15
2018-10-11T21:23:51.318Z,12.47
2018-10-11T21:26:18.772Z,11.43
2018-10-11T21:28:46.172Z,11.90
2018-10-11T21:31:13.597Z,11.10
2018-10-11T21:33:41.011Z,11.53
2018-10-11T21:36:08.440Z,11.35
2018-10-11T21:38:35.931Z,11.43
2018-10-11T21:41:03.364Z,11.38
2018-10-11T21:43:30.787Z,11.03
2018-10-11T21:45:58.215Z,11.63
2018-10-11T21:48:25.661Z,11.83
2018-10-11T21:50:53.101Z,11.43
2018-10-11T21:53:20.517Z,12.23
2018-10-11T21:55:47.944Z,11.67
2018-10-11T21:58:15.456Z,11.37
2018-10-11T22:00:48.331Z,11.00
2018-10-11T22:03:15.743Z,11.20
2018-10-11T22:05:43.240Z,11.90
2018-10-11T22:08:10.763Z,11.27
2018-10-11T22:10:39.919Z,11.35
2018-10-11T22:13:07.330Z,11.77
2018-10-11T22:15:34.752Z,11.73
2018-10-11T22:18:02.179Z,12.27
2018-10-11T22:20:29.608Z,12.43
2018-10-11T22:22:57.027Z,12.07
2018-10-11T22:25:24.707Z,11.80
2018-10-11T22:27:52.358Z,12.23
2018-10-11T22:30:19.804Z,12.63
2018-10-11T22:32:47.224Z,11.73
2018-10-11T22:35:14.660Z,11.50
2018-10-11T22:37:42.096Z,11.20
2018-10-11T22:40:09.603Z,11.17
2018-10-11T22:42:37.019Z,11.83
2018-10-11T22:45:04.448Z,11.70
2018-10-11T22:47:31.883Z,11.40
2018-10-11T22:49:59.320Z,12.23
2018-10-11T22:52:26.744Z,11.65
2018-10-11T22:54:54.180Z,11.20
2018-10-11T22:57:21.609Z,12.23
2018-10-11T22:59:49.054Z,12.03
2018-10-11T23:02:16.488Z,12.27
2018-10-11T23:04:43.911Z,11.13
2018-10-11T23:07:11.592Z,11.63
2018-10-11T23:09:39.025Z,11.60
2018-10-11T23:12:06.543Z,12.40
2018-10-11T23:14:33.985Z,11.77
2018-10-11T23:17:01.417Z,10.83
2018-10-11T23:19:28.860Z,12.30
2018-10-11T23:21:56.291Z,13.00
2018-10-11T23:24:23.717Z,11.83
2018-10-11T23:26:51.151Z,11.23
2018-10-11T23:29:18.599Z,11.70
2018-10-11T23:31:46.024Z,11.67
2018-10-11T23:34:13.440Z,12.13
2018-10-11T23:36:40.875Z,12.00
2018-10-11T23:39:08.311Z,12.90
2018-10-11T23:41:35.739Z,11.40
2018-10-11T23:44:03.164Z,12.53
2018-10-11T23:46:30.591Z,12.10
2018-10-11T23:48:58.020Z,11.57
2018-10-11T23:51:25.449Z,12.33
2018-10-11T23:53:52.887Z,12.60
2018-10-11T23:56:20.323Z,12.20
2018-10-11T23:58:47.752Z,12.07
